Time;durP1;ratioP1;P1;durP2;ratioP2;P2;SDS_P1;SDS_P2;PMS_P1;PMS_P2;Temp;Humidity;BMP_temperature;BMP_pressure;BME280_temperature;BME280_humidity;BME280_pressure;Samples;Min_cycle;Max_cycle;Signal;HPM_P1;HPM_P2
2022/05/30 00:01:43;;;;;;;4.75;2.83;;;;;;;15.38;54.53;99724.63;1647897;86;22265;-77
2022/05/30 00:04:09;;;;;;;3.90;2.77;;;;;;;15.37;54.82;99725.72;1660896;86;21019;-75
2022/05/30 00:06:37;;;;;;;2.80;2.08;;;;;;;15.36;55.00;99721.38;1664349;86;21489;-81
2022/05/30 00:09:05;;;;;;;2.72;2.30;;;;;;;15.37;55.06;99727.06;1645770;84;20968;-78
2022/05/30 00:11:33;;;;;;;2.92;2.52;;;;;;;15.39;55.00;99727.61;1655627;86;21508;-76
2022/05/30 00:13:59;;;;;;;5.10;3.17;;;;;;;15.40;55.33;99729.20;1664232;85;22085;-80
2022/05/30 00:16:26;;;;;;;3.42;2.75;;;;;;;15.41;55.38;99729.48;1663341;85;21530;-76
2022/05/30 00:18:54;;;;;;;3.75;3.00;;;;;;;15.43;55.35;99733.27;1661237;86;21000;-75
2022/05/30 00:21:22;;;;;;;6.85;2.90;;;;;;;15.43;55.44;99731.38;1664348;86;21031;-74
2022/05/30 00:23:49;;;;;;;3.80;2.87;;;;;;;15.44;55.48;99728.94;1660731;86;21087;-75
2022/05/30 00:26:15;;;;;;;3.55;2.85;;;;;;;15.44;55.55;99722.16;1661340;86;22242;-76
2022/05/30 00:28:42;;;;;;;5.65;3.10;;;;;;;15.44;55.79;99724.88;1635635;87;20958;-70
2022/05/30 00:31:12;;;;;;;2.95;2.70;;;;;;;15.43;55.90;99721.89;1659841;86;21043;-71
2022/05/30 00:33:40;;;;;;;4.40;2.77;;;;;;;15.43;56.11;99715.11;1634823;86;21043;-70
2022/05/30 00:36:07;;;;;;;4.50;2.80;;;;;;;15.41;56.38;99711.86;1632139;88;21039;-70
2022/05/30 00:38:34;;;;;;;3.00;2.58;;;;;;;15.37;56.49;99705.39;1651395;86;21253;-71
2022/05/30 00:41:01;;;;;;;5.10;2.60;;;;;;;15.37;56.56;99708.09;1658864;86;21044;-71
2022/05/30 00:43:34;;;;;;;3.10;2.62;;;;;;;15.35;56.93;99714.33;1657669;86;21000;-72
2022/05/30 00:46:01;;;;;;;;;;;;;;;15.34;56.99;99722.77;1660985;86;21074;-73
2022/05/30 00:48:32;;;;;;;3.30;2.65;;;;;;;15.32;57.16;99716.25;1657492;84;20135;-74
2022/05/30 00:51:04;;;;;;;6.10;2.42;;;;;;;15.32;57.37;99714.09;1656484;86;21124;-73
2022/05/30 00:53:32;;;;;;;4.05;2.75;;;;;;;15.32;57.35;99709.48;1635843;86;21075;-73
2022/05/30 00:55:58;;;;;;;4.00;2.55;;;;;;;15.34;57.43;99712.73;1636058;86;21038;-74
2022/05/30 00:58:26;;;;;;;3.92;2.37;;;;;;;15.36;57.58;99707.83;1658710;86;21019;-75
2022/05/30 01:00:52;;;;;;;3.87;2.05;;;;;;;15.37;57.96;99710.00;1636203;86;21119;-74
2022/05/30 01:08:49;;;;;;;3.00;2.17;;;;;;;15.30;58.82;99704.88;1658855;86;21607;-80
2022/05/30 01:11:16;;;;;;;2.58;2.30;;;;;;;15.25;59.33;99694.88;1637026;86;21098;-79
2022/05/30 01:13:42;;;;;;;3.47;2.30;;;;;;;15.20;60.13;99680.00;1655548;86;21594;-81
2022/05/30 01:16:10;;;;;;;4.33;2.10;;;;;;;15.17;60.40;99669.73;1670078;84;21420;-80
2022/05/30 01:18:52;;;;;;;2.47;2.25;;;;;;;15.12;60.91;99663.00;1709284;84;21072;-78
2022/05/30 01:21:39;;;;;;;4.67;2.10;;;;;;;15.07;61.31;99669.80;1709334;82;21060;-78
2022/05/30 01:24:30;;;;;;;4.40;2.15;;;;;;;15.03;61.54;99664.67;1682550;84;21631;-78
2022/05/30 01:27:10;;;;;;;8.38;2.83;;;;;;;15.00;61.91;99659.02;1705588;84;21486;-78
2022/05/30 01:29:42;;;;;;;5.03;2.17;;;;;;;14.91;62.89;99660.16;1690632;83;21496;-79
2022/05/30 01:32:09;;;;;;;3.05;2.40;;;;;;;14.82;63.27;99646.91;1645693;85;21568;-79
2022/05/30 01:34:36;;;;;;;2.60;2.40;;;;;;;14.75;63.67;99630.98;1642672;87;21592;-78
2022/05/30 01:37:03;;;;;;;2.42;1.95;;;;;;;14.71;64.17;99615.03;1682773;84;21005;-71
2022/05/30 01:39:32;;;;;;;3.58;2.60;;;;;;;14.68;64.63;99609.34;1709656;84;21036;-72
2022/05/30 01:41:59;;;;;;;3.50;2.58;;;;;;;14.61;65.04;99611.56;1683215;84;21210;-73
2022/05/30 01:44:27;;;;;;;6.15;3.00;;;;;;;14.55;65.70;99612.13;1706929;84;21020;-73
2022/05/30 01:46:53;;;;;;;4.05;2.60;;;;;;;14.48;66.12;99607.56;1672139;85;21083;-72
2022/05/30 01:49:20;;;;;;;4.35;3.12;;;;;;;14.44;67.05;99613.23;1681095;85;21045;-72
2022/05/30 01:51:48;;;;;;;2.42;2.10;;;;;;;14.35;67.58;99614.88;1680935;85;21029;-72
2022/05/30 01:54:15;;;;;;;3.95;3.17;;;;;;;14.27;68.25;99620.86;1702955;84;21203;-72
2022/05/30 01:56:43;;;;;;;4.70;2.50;;;;;;;14.20;68.50;99608.16;1712600;82;21563;-73
2022/05/30 01:59:10;;;;;;;5.03;3.25;;;;;;;14.16;69.31;99601.68;1708324;82;21087;-73
2022/05/30 02:01:44;;;;;;;4.53;2.58;;;;;;;14.13;69.43;99598.19;1675431;84;21024;-75
2022/05/30 02:04:14;;;;;;;3.45;2.42;;;;;;;14.11;70.38;99614.68;1703695;84;21047;-75
2022/05/30 02:06:42;;;;;;;4.37;2.55;;;;;;;14.06;70.61;99629.56;1706433;84;22008;-75
2022/05/30 02:09:08;;;;;;;2.92;2.62;;;;;;;14.02;71.20;99627.68;1705956;84;21052;-73
2022/05/30 02:11:35;;;;;;;2.27;2.17;;;;;;;14.03;71.62;99627.95;1658496;85;21119;-72
2022/05/30 02:14:12;;;;;;;6.67;3.00;;;;;;;14.05;71.93;99627.16;1662901;84;20995;-73
2022/05/30 02:19:24;;;;;;;3.25;2.98;;;;;;;14.11;72.36;99635.50;1680943;85;21149;-73
2022/05/30 02:21:52;;;;;;;4.55;3.85;;;;;;;14.18;72.41;99639.56;1656196;85;21008;-73
2022/05/30 02:24:18;;;;;;;3.27;2.80;;;;;;;14.19;72.58;99634.96;1681222;85;21015;-73
2022/05/30 02:26:45;;;;;;;4.28;2.90;;;;;;;14.18;72.89;99626.03;1686908;84;21067;-74
2022/05/30 02:29:13;;;;;;;4.45;3.05;;;;;;;14.13;73.17;99629.29;1697223;84;20993;-74
2022/05/30 02:31:44;;;;;;;8.33;3.00;;;;;;;14.10;73.70;99613.05;1710039;82;21146;-73
2022/05/30 02:36:56;;;;;;;3.35;2.52;;;;;;;14.07;74.33;99622.27;1687719;84;20972;-75
2022/05/30 02:39:26;;;;;;;6.28;3.15;;;;;;;14.11;74.67;99611.16;1680715;85;21221;-76
2022/05/30 02:41:55;;;;;;;4.95;3.70;;;;;;;14.15;74.93;99608.98;1681236;84;21586;-75
2022/05/30 02:44:24;;;;;;;5.47;3.02;;;;;;;14.18;75.70;99608.45;1708252;84;21820;-73
2022/05/30 02:46:54;;;;;;;4.00;3.17;;;;;;;14.21;75.51;99597.07;1708609;84;21083;-73
2022/05/30 02:49:21;;;;;;;3.10;2.77;;;;;;;14.22;75.83;99591.12;1698404;84;21043;-74
2022/05/30 02:51:49;;;;;;;3.37;3.08;;;;;;;14.25;76.04;99596.78;1708409;84;20940;-74
2022/05/30 02:54:16;;;;;;;4.40;3.17;;;;;;;14.26;76.41;99602.47;1708356;83;21549;-76
2022/05/30 02:57:04;;;;;;;6.47;3.17;;;;;;;14.22;76.71;99606.00;1709502;84;20980;-76
2022/05/30 02:59:31;;;;;;;4.33;2.70;;;;;;;14.24;76.81;99607.90;1669897;84;20998;-77
2022/05/30 03:01:59;;;;;;;2.90;2.70;;;;;;;14.28;77.43;99606.26;1651096;85;21031;-73
2022/05/30 03:04:25;;;;;;;3.47;3.17;;;;;;;14.29;77.55;99609.23;1626683;86;21079;-75
2022/05/30 03:06:52;;;;;;;4.20;3.80;;;;;;;14.29;78.04;99613.30;1654741;86;21568;-79
2022/05/30 03:09:20;;;;;;;4.50;3.42;;;;;;;14.27;78.34;99620.33;1675192;85;21150;-78
2022/05/30 03:11:48;;;;;;;6.40;3.35;;;;;;;14.30;78.68;99625.70;1633146;85;21087;-77
2022/05/30 03:14:16;;;;;;;5.62;4.17;;;;;;;14.31;79.20;99628.15;1654447;86;21081;-77
2022/05/30 03:16:43;;;;;;;4.58;3.10;;;;;;;14.28;79.94;99632.77;1655118;86;21063;-75
2022/05/30 03:19:10;;;;;;;7.40;3.47;;;;;;;14.28;80.52;99626.01;1655743;85;21107;-75
2022/05/30 03:21:36;;;;;;;3.75;3.45;;;;;;;14.27;80.95;99629.79;1633143;86;21205;-74
2022/05/30 03:24:05;;;;;;;4.22;3.70;;;;;;;14.32;81.63;99641.95;1627602;88;21109;-73
2022/05/30 03:26:36;;;;;;;5.05;3.83;;;;;;;14.32;82.87;99634.38;1563831;88;21103;-73
2022/05/30 03:29:03;;;;;;;4.95;4.47;;;;;;;14.30;82.94;99638.70;1627743;88;21028;-74
2022/05/30 03:31:30;;;;;;;4.78;4.20;;;;;;;14.37;83.15;99646.56;1607530;88;21072;-74
2022/05/30 03:33:57;;;;;;;5.60;4.33;;;;;;;14.41;83.48;99654.39;1643157;86;21086;-76
2022/05/30 03:36:26;;;;;;;4.85;4.25;;;;;;;14.45;84.04;99651.94;1656082;86;21023;-78
2022/05/30 03:39:13;;;;;;;5.78;4.53;;;;;;;14.46;84.52;99645.45;1655264;86;21044;-77
2022/05/30 03:41:58;;;;;;;4.33;3.83;;;;;;;14.47;84.94;99645.18;1654952;86;21024;-77
2022/05/30 03:44:43;;;;;;;5.17;4.00;;;;;;;14.52;85.82;99644.35;1655501;86;21044;-76
2022/05/30 03:47:11;;;;;;;5.47;3.90;;;;;;;14.53;86.17;99637.28;1655741;86;21514;-75
2022/05/30 03:49:38;;;;;;;4.47;3.20;;;;;;;14.53;86.63;99629.73;1655618;86;21008;-76
2022/05/30 03:52:07;;;;;;;6.58;3.80;;;;;;;14.59;87.09;99631.31;1655944;86;21742;-76
2022/05/30 03:54:34;;;;;;;8.53;4.53;;;;;;;14.63;87.21;99628.31;1619256;86;21012;-74
2022/05/30 03:57:00;;;;;;;4.92;4.42;;;;;;;14.69;87.52;99626.67;1672387;85;21011;-76
2022/05/30 03:59:28;;;;;;;4.35;3.83;;;;;;;14.77;87.82;99614.47;1683038;84;22109;-76
2022/05/30 04:01:56;;;;;;;4.62;3.83;;;;;;;14.82;88.26;99607.64;1709390;83;21559;-76
2022/05/30 04:04:23;;;;;;;4.75;4.35;;;;;;;14.82;88.54;99606.28;1709410;82;21013;-76
2022/05/30 04:06:50;;;;;;;6.78;6.15;;;;;;;14.86;88.05;99601.14;1709695;84;21624;-74
2022/05/30 04:09:17;;;;;;;5.35;4.95;;;;;;;14.88;87.92;99605.72;1709438;84;21021;-74
2022/05/30 04:11:52;;;;;;;7.33;4.58;;;;;;;14.95;87.70;99615.71;1651607;85;21165;-74
2022/05/30 04:14:32;;;;;;;5.53;4.55;;;;;;;14.99;87.54;99604.03;1654525;85;21524;-75
2022/05/30 04:17:01;;;;;;;6.22;5.28;;;;;;;15.02;87.36;99604.81;1681057;84;21555;-75
2022/05/30 04:19:28;;;;;;;11.48;7.00;;;;;;;15.06;87.31;99607.22;1684482;83;21056;-75
2022/05/30 04:21:57;;;;;;;6.08;5.55;;;;;;;15.09;87.20;99595.03;1714971;82;21480;-75
2022/05/30 04:24:28;;;;;;;4.80;4.40;;;;;;;15.09;87.35;99584.20;1715711;82;21493;-74
2022/05/30 04:26:57;;;;;;;5.47;5.00;;;;;;;15.06;87.65;99574.72;1714511;81;21004;-76
2022/05/30 04:29:24;;;;;;;10.65;6.45;;;;;;;15.12;87.47;99579.55;1713808;82;21064;-76
2022/05/30 04:32:07;;;;;;;6.90;4.58;;;;;;;15.17;87.46;99599.84;1686193;85;21039;-74
2022/05/30 04:34:36;;;;;;;4.53;4.12;;;;;;;15.27;87.16;99620.09;1664601;85;21111;-75
2022/05/30 04:37:04;;;;;;;9.20;4.33;;;;;;;15.33;86.88;99614.91;1711544;83;21154;-75
2022/05/30 04:39:31;;;;;;;5.35;4.17;;;;;;;15.34;86.72;99618.42;1664999;83;21032;-75
2022/05/30 04:42:16;;;;;;;4.87;4.42;;;;;;;15.34;86.73;99608.41;1686146;83;21544;-74
2022/05/30 04:45:02;;;;;;;5.65;3.77;;;;;;;15.31;87.38;99616.27;1710258;83;21040;-75
2022/05/30 04:47:36;;;;;;;5.12;4.10;;;;;;;15.27;87.79;99605.19;1693629;83;21095;-76
2022/05/30 04:50:13;;;;;;;4.05;3.72;;;;;;;15.23;88.10;99594.66;1714129;83;21414;-75
2022/05/30 04:52:41;;;;;;;5.50;4.28;;;;;;;15.24;88.42;99595.73;1715174;83;21516;-75
2022/05/30 04:55:10;;;;;;;4.75;3.75;;;;;;;15.28;88.11;99595.97;1718912;82;21028;-78
2022/05/30 04:57:43;;;;;;;5.90;4.33;;;;;;;15.34;88.01;99605.69;1715220;83;21051;-77
2022/05/30 05:00:14;;;;;;;3.67;3.15;;;;;;;15.33;88.00;99609.48;1697998;83;21071;-77
2022/05/30 05:02:41;;;;;;;3.80;3.50;;;;;;;15.37;87.80;99618.66;1716083;83;21303;-80
2022/05/30 05:05:09;;;;;;;4.35;3.98;;;;;;;15.44;87.56;99628.66;1678709;84;20931;-78
2022/05/30 05:07:50;;;;;;;4.25;3.85;;;;;;;15.45;87.19;99636.20;1677887;85;20951;-79
2022/05/30 05:10:35;;;;;;;14.45;4.00;;;;;;;15.48;86.80;99637.83;1678067;85;21058;-79
2022/05/30 05:13:06;;;;;;;4.67;3.72;;;;;;;15.48;86.31;99645.15;1638195;85;21070;-78
2022/05/30 05:15:44;;;;;;;5.30;3.10;;;;;;;15.43;86.31;99648.70;1638858;85;21235;-79
2022/05/30 05:18:13;;;;;;;3.70;3.40;;;;;;;15.43;86.29;99661.45;1634003;85;21010;-72
2022/05/30 05:20:44;;;;;;;5.10;4.33;;;;;;;15.44;86.47;99654.41;1634160;85;20968;-72
2022/05/30 05:23:15;;;;;;;4.67;4.28;;;;;;;15.51;86.59;99673.06;1679576;85;21023;-73
2022/05/30 05:25:43;;;;;;;;;;;;;;;15.53;86.33;99675.77;1693893;84;21060;-73
2022/05/30 05:28:29;;;;;;;4.12;3.70;;;;;;;15.53;86.24;99704.78;1708677;84;21861;-73
2022/05/30 05:30:58;;;;;;;5.95;3.72;;;;;;;15.49;86.69;99701.77;1680974;85;21596;-79
2022/05/30 05:33:25;;;;;;;4.70;3.60;;;;;;;15.52;86.81;99701.80;1708644;84;21028;-80
2022/05/30 05:35:51;;;;;;;4.37;3.58;;;;;;;15.52;87.17;99714.81;1709378;83;21021;-80
2022/05/30 05:38:18;;;;;;;5.50;3.15;;;;;;;15.52;87.21;99712.64;1692960;84;21028;-81
2022/05/30 05:40:55;;;;;;;4.70;4.30;;;;;;;15.50;87.69;99721.55;1673217;84;21148;-75
2022/05/30 05:43:24;;;;;;;6.65;4.22;;;;;;;15.44;87.91;99719.99;1697155;84;21513;-77
2022/05/30 05:45:51;;;;;;;5.37;3.87;;;;;;;15.42;88.38;99721.62;1709308;84;21533;-78
2022/05/30 05:48:18;;;;;;;5.33;4.25;;;;;;;15.42;88.67;99723.52;1708757;84;21466;-80
2022/05/30 05:50:45;;;;;;;5.37;4.85;;;;;;;15.44;89.15;99726.77;1708799;83;21730;-74
2022/05/30 05:53:12;;;;;;;5.20;4.00;;;;;;;15.45;89.32;99718.87;1672508;85;21168;-74
2022/05/30 05:55:40;;;;;;;5.75;3.62;;;;;;;15.47;89.63;99712.64;1654048;86;21070;-73
2022/05/30 05:58:07;;;;;;;4.78;4.12;;;;;;;15.45;89.74;99703.42;1655887;86;21032;-75
2022/05/30 06:00:35;;;;;;;4.87;4.30;;;;;;;15.43;89.83;99706.17;1655400;86;21541;-75
2022/05/30 06:03:02;;;;;;;4.33;3.83;;;;;;;15.43;90.05;99702.91;1651290;86;21059;-75
2022/05/30 06:05:30;;;;;;;7.60;4.47;;;;;;;15.44;90.10;99699.66;1649522;86;21176;-78
2022/05/30 06:08:15;;;;;;;4.62;4.17;;;;;;;15.47;89.83;99695.84;1651178;86;21594;-76
2022/05/30 06:11:05;;;;;;;4.80;4.30;;;;;;;15.45;89.70;99699.91;1602797;86;21059;-80
2022/05/30 06:13:33;;;;;;;5.22;4.28;;;;;;;15.44;89.69;99703.19;1644391;86;21045;-79
2022/05/30 06:16:00;;;;;;;7.50;4.83;;;;;;;15.46;89.89;99705.05;1655517;86;21132;-78
2022/05/30 06:18:38;;;;;;;5.45;4.62;;;;;;;15.42;90.17;99687.73;1627234;86;21240;-79
2022/05/30 06:21:05;;;;;;;5.25;4.30;;;;;;;15.38;90.38;99684.52;1661008;85;20932;-83
2022/05/30 06:23:34;;;;;;;7.20;4.45;;;;;;;15.36;90.45;99691.56;1633382;85;21069;-77
2022/05/30 06:26:11;;;;;;;4.50;4.10;;;;;;;15.38;90.63;99693.46;1667844;85;21028;-77
2022/05/30 06:28:40;;;;;;;8.10;6.15;;;;;;;15.38;91.23;99692.11;1667522;85;21036;-75
2022/05/30 06:31:18;;;;;;;5.03;4.53;;;;;;;15.36;91.16;99692.92;1654197;86;21248;-75
2022/05/30 06:33:46;;;;;;;9.55;4.45;;;;;;;15.37;91.15;99690.48;1654574;86;22051;-75
2022/05/30 06:36:18;;;;;;;4.08;3.62;;;;;;;15.37;91.09;99684.25;1648172;85;21545;-76
2022/05/30 06:38:47;;;;;;;5.28;3.45;;;;;;;15.35;91.03;99679.09;1655712;86;21035;-81
2022/05/30 06:41:31;;;;;;;7.30;4.10;;;;;;;15.38;91.12;99681.81;1654121;86;20988;-78
2022/05/30 06:44:04;;;;;;;6.55;4.33;;;;;;;15.37;91.43;99681.00;1654366;86;21442;-78
2022/05/30 06:46:36;;;;;;;5.90;4.15;;;;;;;15.40;91.86;99698.58;1632693;86;21112;-78
2022/05/30 06:49:21;;;;;;;5.50;4.15;;;;;;;15.40;92.56;99681.78;1633419;86;21088;-77
2022/05/30 06:51:52;;;;;;;4.83;3.95;;;;;;;15.40;92.42;99674.19;1655602;86;21033;-78
2022/05/30 06:54:20;;;;;;;5.62;3.67;;;;;;;15.34;92.42;99659.89;1655812;86;21107;-80
2022/05/30 06:59:34;;;;;;;8.83;5.85;;;;;;;15.25;92.99;99642.61;1624758;86;21034;-78
2022/05/30 07:02:04;;;;;;;11.73;8.40;;;;;;;15.26;93.10;99633.37;1654313;86;21024;-75
2022/05/30 07:04:50;;;;;;;17.02;11.63;;;;;;;15.24;93.05;99638.28;1655099;85;21007;-77
2022/05/30 07:07:39;;;;;;;14.87;9.60;;;;;;;15.23;93.43;99644.23;1655324;85;21080;-78
2022/05/30 07:10:11;;;;;;;11.05;7.30;;;;;;;15.20;94.55;99641.29;1615522;86;22224;-74
2022/05/30 07:12:43;;;;;;;10.65;5.65;;;;;;;15.13;94.82;99640.23;1626971;88;21004;-74
2022/05/30 07:15:11;;;;;;;7.35;5.00;;;;;;;15.07;95.22;99622.39;1627716;88;21020;-76
2022/05/30 07:17:40;;;;;;;8.70;4.87;;;;;;;15.08;95.32;99619.14;1628394;86;21017;-75
2022/05/30 07:20:08;;;;;;;5.10;4.53;;;;;;;15.04;95.33;99608.61;1627853;87;21537;-78
2022/05/30 07:22:53;;;;;;;5.22;3.92;;;;;;;15.02;95.69;99587.75;1624756;86;21162;-73
2022/05/30 07:25:38;;;;;;;;;;;;;;;14.96;97.14;99580.77;1629152;88;21061;-72
2022/05/30 07:28:28;;;;;;;3.52;2.77;;;;;;;14.90;97.49;99572.41;1645946;86;20121;-74
2022/05/30 07:31:16;;;;;;;5.33;3.55;;;;;;;14.82;98.57;99573.80;1655775;86;20964;-73
2022/05/30 07:34:01;;;;;;;3.22;2.75;;;;;;;14.81;98.81;99570.84;1672938;85;21038;-74
2022/05/30 07:36:47;;;;;;;11.83;4.33;;;;;;;14.88;99.16;99548.85;1655604;86;21102;-76
2022/05/30 07:39:31;;;;;;;5.33;3.05;;;;;;;14.84;98.98;99541.84;1630693;86;20992;-75
2022/05/30 07:42:10;;;;;;;7.67;3.75;;;;;;;14.88;99.44;99538.83;1595142;88;21040;-73
2022/05/30 07:44:55;;;;;;;5.67;4.10;;;;;;;14.93;99.38;99529.32;1647777;86;20976;-74
2022/05/30 07:47:35;;;;;;;5.03;4.25;;;;;;;14.98;99.16;99524.41;1654155;86;21028;-73
2022/05/30 07:50:12;;;;;;;5.70;4.20;;;;;;;14.97;99.09;99518.72;1626911;88;21509;-74
2022/05/30 07:52:52;;;;;;;7.00;4.58;;;;;;;14.96;98.91;99515.23;1651182;85;26027;-76
2022/05/30 07:55:21;;;;;;;12.10;4.70;;;;;;;15.00;99.06;99518.17;1653277;86;21060;-76
2022/05/30 07:57:55;;;;;;;9.68;5.17;;;;;;;15.04;99.17;99521.93;1653857;86;21583;-75
2022/05/30 08:00:31;;;;;;;5.60;5.03;;;;;;;15.11;98.93;99523.75;1627807;88;21048;-75
2022/05/30 08:02:57;;;;;;;7.33;3.92;;;;;;;15.16;98.36;99508.27;1627423;88;21359;-76
2022/05/30 08:05:25;;;;;;;6.58;4.10;;;;;;;15.19;97.82;99511.79;1644437;86;20952;-77
2022/05/30 08:08:10;;;;;;;8.05;4.12;;;;;;;15.20;97.81;99515.31;1651334;85;21518;-75
2022/05/30 08:10:48;;;;;;;5.20;4.22;;;;;;;15.22;97.88;99518.52;1708963;83;21584;-75
2022/05/30 08:13:15;;;;;;;5.35;4.30;;;;;;;15.21;97.81;99510.12;1709225;84;21502;-78
2022/05/30 08:15:45;;;;;;;6.42;4.33;;;;;;;15.29;98.14;99510.89;1709118;83;21557;-77
2022/05/30 08:18:19;;;;;;;5.47;4.10;;;;;;;15.40;97.77;99511.58;1672418;84;20956;-74
2022/05/30 08:20:48;;;;;;;6.10;5.28;;;;;;;15.47;97.04;99533.20;1713147;83;20995;-74
2022/05/30 08:23:17;;;;;;;9.55;6.12;;;;;;;15.50;96.85;99543.47;1712458;83;21048;-75
2022/05/30 08:25:45;;;;;;;9.30;5.62;;;;;;;15.55;96.82;99552.13;1712867;83;21569;-81
2022/05/30 08:28:14;;;;;;;17.27;6.03;;;;;;;15.61;96.53;99555.06;1714991;83;21194;-78
2022/05/30 08:30:41;;;;;;;10.78;5.87;;;;;;;15.66;96.07;99554.47;1714974;82;21031;-78
2022/05/30 08:33:18;;;;;;;6.62;4.40;;;;;;;15.66;95.54;99556.36;1712939;82;21532;-74
2022/05/30 08:35:45;;;;;;;7.17;5.15;;;;;;;15.68;95.53;99563.68;1693628;83;21024;-76
2022/05/30 08:38:21;;;;;;;6.12;5.60;;;;;;;15.70;95.58;99561.47;1714379;81;21060;-74
2022/05/30 08:43:37;;;;;;;5.30;4.80;;;;;;;15.75;94.98;99562.78;1714797;82;21501;-82
2022/05/30 08:46:22;;;;;;;6.30;5.72;;;;;;;15.80;94.64;99566.80;1715354;82;21087;-85
2022/05/30 08:49:14;;;;;;;11.15;7.35;;;;;;;15.81;94.29;99565.70;1678893;85;21099;-81
2022/05/30 08:51:47;;;;;;;15.78;6.30;;;;;;;15.87;94.33;99594.40;1630909;87;21108;-76
2022/05/30 08:54:37;;;;;;;7.17;5.33;;;;;;;15.98;94.16;99617.59;1652268;86;21858;-72
2022/05/30 08:57:17;;;;;;;8.50;7.45;;;;;;;16.13;93.83;99621.51;1650989;86;21011;-74
2022/05/30 09:00:10;;;;;;;5.70;4.95;;;;;;;16.23;92.20;99627.92;1648044;86;21048;-75
2022/05/30 09:03:11;;;;;;;5.97;5.10;;;;;;;16.25;91.23;99615.70;1657938;86;21533;-72
2022/05/30 09:05:52;;;;;;;8.38;6.60;;;;;;;16.29;90.17;99606.42;1630549;86;21578;-72
2022/05/30 09:08:27;;;;;;;8.08;5.25;;;;;;;16.20;89.53;99588.61;1651030;87;21266;-72
2022/05/30 09:11:16;;;;;;;7.17;6.37;;;;;;;16.16;89.60;99578.08;1625772;86;21077;-71
2022/05/30 09:13:47;;;;;;;8.33;7.08;;;;;;;16.11;89.81;99574.84;1651012;86;21007;-70
2022/05/30 09:16:37;;;;;;;10.15;7.25;;;;;;;16.09;90.31;99573.53;1645797;85;21037;-76
2022/05/30 09:19:08;;;;;;;11.83;8.28;;;;;;;16.13;90.79;99580.00;1642175;84;21063;-78
2022/05/30 09:21:35;;;;;;;9.60;7.33;;;;;;;16.11;90.99;99580.85;1638282;85;21168;-75
2022/05/30 09:24:03;;;;;;;12.47;8.05;;;;;;;16.10;92.04;99590.08;1649272;84;20943;-76
2022/05/30 09:26:36;;;;;;;8.90;8.00;;;;;;;16.03;92.41;99585.53;1664184;84;21010;-77
2022/05/30 09:29:16;;;;;;;6.78;6.12;;;;;;;16.00;92.85;99588.83;1645663;86;21110;-74
2022/05/30 09:32:06;;;;;;;13.53;7.05;;;;;;;16.01;93.36;99572.83;1635041;87;21115;-75
2022/05/30 09:34:47;;;;;;;9.33;6.72;;;;;;;16.00;93.44;99576.08;1641275;86;21229;-75
2022/05/30 09:37:37;;;;;;;9.78;7.50;;;;;;;16.03;93.83;99563.83;1649968;86;20973;-77
2022/05/30 09:40:09;;;;;;;10.10;8.20;;;;;;;16.10;93.95;99565.66;1658018;86;21086;-74
2022/05/30 09:42:48;;;;;;;11.28;9.00;;;;;;;16.12;93.79;99564.27;1661014;86;21086;-74
2022/05/30 09:45:27;;;;;;;7.17;6.47;;;;;;;16.12;93.65;99564.27;1663945;84;21059;-76
2022/05/30 09:48:13;;;;;;;10.13;6.30;;;;;;;16.14;93.89;99553.94;1636997;86;21093;-87
2022/05/30 09:50:57;;;;;;;8.20;5.85;;;;;;;16.19;94.62;99550.36;1613474;86;21078;-81
2022/05/30 09:53:49;;;;;;;9.23;5.97;;;;;;;16.27;95.24;99548.89;1661402;86;21023;-88
2022/05/30 09:56:18;;;;;;;10.00;7.50;;;;;;;16.35;95.55;99547.72;1658135;86;21052;-89
2022/05/30 09:59:13;;;;;;;7.50;6.62;;;;;;;16.45;95.46;99546.20;1659508;85;21053;-83
2022/05/30 10:01:53;;;;;;;5.90;5.40;;;;;;;16.53;95.56;99553.72;1644291;86;21200;-81
2022/05/30 10:04:37;;;;;;;7.10;6.40;;;;;;;16.67;95.25;99556.55;1658797;86;21377;-80
2022/05/30 10:07:17;;;;;;;11.28;8.08;;;;;;;16.69;93.96;99552.97;1617769;86;21007;-81
2022/05/30 10:09:59;;;;;;;6.72;5.80;;;;;;;16.69;93.19;99544.82;1651902;84;21431;-78
2022/05/30 10:12:44;;;;;;;8.35;6.17;;;;;;;16.71;92.96;99549.97;1637250;87;21015;-77
2022/05/30 10:15:41;;;;;;;7.72;6.67;;;;;;;16.77;93.07;99543.37;1685566;84;21944;-77
2022/05/30 10:18:38;;;;;;;6.83;6.12;;;;;;;16.83;92.91;99548.45;1691487;83;21938;-81
2022/05/30 10:28:14;;;;;;;9.90;7.15;;;;;;;17.07;91.64;99542.92;1646010;86;21073;-77
2022/05/30 10:31:10;;;;;;;9.53;6.58;;;;;;;17.06;91.63;99526.90;1658692;85;21151;-92
2022/05/30 10:33:58;;;;;;;12.03;7.58;;;;;;;17.12;91.71;99527.08;1659038;86;21063;-89
2022/05/30 10:36:44;;;;;;;8.93;7.30;;;;;;;17.16;91.34;99522.11;1680077;84;21144;-88
2022/05/30 10:39:44;;;;;;;8.50;7.03;;;;;;;17.21;91.06;99515.78;1679924;85;21064;-84
2022/05/30 10:42:24;;;;;;;8.63;7.25;;;;;;;17.24;90.97;99518.70;1715866;83;21111;-82
2022/05/30 10:44:59;;;;;;;8.88;7.00;;;;;;;17.30;91.04;99505.84;1721216;83;21161;-81
2022/05/30 10:47:39;;;;;;;7.97;6.83;;;;;;;17.39;90.63;99501.33;1688756;85;21056;-80
2022/05/30 10:50:42;;;;;;;6.45;5.85;;;;;;;17.43;90.24;99496.90;1712289;83;21076;-78
2022/05/30 10:53:03;;;;;;;13.83;7.85;;;;;;;17.51;89.42;99489.40;1662133;86;21047;-81
2022/05/30 10:55:41;;;;;;;13.13;6.75;;;;;;;17.53;88.66;99486.39;1692121;83;21564;-75
2022/05/30 10:58:34;;;;;;;7.90;6.78;;;;;;;17.55;88.69;99490.44;1713276;83;21097;-77
2022/05/30 11:01:09;;;;;;;8.15;6.25;;;;;;;17.59;88.49;99486.03;1714657;83;21058;-78
2022/05/30 11:03:41;;;;;;;7.95;7.22;;;;;;;17.69;88.16;99490.48;1709451;83;21055;-79
2022/05/30 11:06:26;;;;;;;10.08;7.92;;;;;;;17.75;87.34;99484.62;1705992;83;20987;-75
2022/05/30 11:09:12;;;;;;;11.55;7.33;;;;;;;17.76;87.17;99481.34;1700981;82;21013;-73
2022/05/30 11:11:53;;;;;;;10.55;7.62;;;;;;;17.77;87.23;99480.24;1720053;83;21406;-77
2022/05/30 11:14:47;;;;;;;8.48;6.87;;;;;;;17.82;87.40;99475.52;1719533;83;21801;-72
2022/05/30 11:17:36;;;;;;;10.58;7.22;;;;;;;17.84;86.96;99467.84;1666123;85;20984;-75
2022/05/30 11:20:28;;;;;;;8.98;7.10;;;;;;;17.86;86.77;99471.62;1652770;85;21548;-80
2022/05/30 11:22:56;;;;;;;10.15;6.50;;;;;;;17.93;86.44;99470.68;1665729;85;21560;-85
2022/05/30 11:25:52;;;;;;;8.08;6.33;;;;;;;18.02;86.22;99472.94;1659624;85;21152;-74
2022/05/30 11:28:33;;;;;;;8.13;7.30;;;;;;;18.09;85.93;99476.59;1660227;86;20933;-76
2022/05/30 11:31:29;;;;;;;7.55;6.62;;;;;;;18.14;85.50;99472.40;1660472;85;21004;-76
2022/05/30 11:34:31;;;;;;;13.50;7.92;;;;;;;18.18;85.21;99478.29;1643058;85;21250;-74
2022/05/30 11:37:21;;;;;;;6.90;5.33;;;;;;;18.24;84.63;99477.08;1634643;85;21746;-76
2022/05/30 11:39:57;;;;;;;9.93;7.20;;;;;;;18.29;84.11;99470.16;1652061;85;21676;-75
2022/05/30 11:42:56;;;;;;;7.78;6.90;;;;;;;18.31;83.58;99471.23;1622241;86;21029;-73
2022/05/30 11:45:47;;;;;;;7.87;6.30;;;;;;;18.29;83.60;99470.16;1659153;85;21423;-75
2022/05/30 11:48:39;;;;;;;9.48;6.97;;;;;;;18.34;83.56;99466.52;1654236;85;21081;-75
2022/05/30 11:51:19;;;;;;;8.13;6.33;;;;;;;18.37;83.49;99456.95;1650466;85;21115;-73
2022/05/30 11:54:10;;;;;;;8.55;6.50;;;;;;;18.42;83.13;99466.34;1660350;85;21088;-76
2022/05/30 11:56:47;;;;;;;8.28;6.42;;;;;;;18.47;83.13;99474.39;1678640;85;21544;-81
2022/05/30 11:59:34;;;;;;;7.95;7.15;;;;;;;18.58;82.65;99470.36;1671160;85;21062;-80
2022/05/30 12:02:00;;;;;;;9.48;5.35;;;;;;;18.67;81.96;99464.42;1648598;84;21055;-78
2022/05/30 12:04:48;;;;;;;8.95;6.55;;;;;;;18.72;81.84;99452.05;1652519;85;22610;-82
2022/05/30 12:07:44;;;;;;;9.78;8.68;;;;;;;18.74;81.13;99459.37;1650411;85;21791;-78
2022/05/30 12:10:26;;;;;;;9.25;8.28;;;;;;;18.71;80.62;99461.33;1655454;85;21091;-77
2022/05/30 12:13:25;;;;;;;11.20;8.15;;;;;;;18.72;80.76;99458.30;1647370;85;21025;-74
2022/05/30 12:16:17;;;;;;;11.20;6.67;;;;;;;18.78;79.93;99464.44;1658081;85;38465;-73
2022/05/30 12:24:40;;;;;;;9.38;6.60;;;;;;;18.90;78.63;99470.69;1619315;85;20991;-74
2022/05/30 12:27:10;;;;;;;12.45;8.53;;;;;;;18.87;78.55;99469.39;1637746;85;21130;-84
2022/05/30 12:29:42;;;;;;;8.25;7.03;;;;;;;18.94;78.70;99468.97;1643319;85;21152;-88
2022/05/30 12:32:32;;;;;;;12.82;7.90;;;;;;;18.99;78.28;99463.40;1640718;85;21055;-84
2022/05/30 12:37:46;;;;;;;10.38;6.55;;;;;;;19.18;77.84;99476.27;1643222;85;21610;-75
2022/05/30 12:40:30;;;;;;;10.03;8.13;;;;;;;19.22;77.56;99472.36;1651641;85;21543;-72
2022/05/30 12:43:10;;;;;;;8.78;7.30;;;;;;;19.22;77.56;99474.52;1619917;85;21063;-75